createdAt,value
2022-10-03T00:01:35.636Z,61792.09
2022-10-03T00:04:24.503Z,61792.09
2022-10-03T00:07:16.434Z,61792.09
2022-10-03T00:10:24.184Z,61792.09
2022-10-03T00:13:26.635Z,61792.09
2022-10-03T00:16:13.935Z,61792.09
2022-10-03T00:19:14.545Z,61792.09
2022-10-03T00:22:05.188Z,61792.09
2022-10-03T00:25:12.489Z,61792.09
2022-10-03T00:28:16.081Z,61792.09
2022-10-03T00:31:01.393Z,61792.09
2022-10-03T00:33:49.521Z,61792.09
2022-10-03T00:36:42.603Z,61792.09
2022-10-03T00:39:44.029Z,61792.09
2022-10-03T00:42:49.375Z,61792.09
2022-10-03T00:45:45.171Z,61792.09
2022-10-03T00:48:56.426Z,61792.09
2022-10-03T00:51:49.358Z,61792.09
2022-10-03T00:54:33.333Z,61792.09
2022-10-03T00:57:27.712Z,61792.09
2022-10-03T01:00:13.462Z,61792.09
2022-10-03T01:02:49.224Z,61792.09
2022-10-03T01:05:27.801Z,61792.09
2022-10-03T01:08:54.914Z,61792.09
2022-10-03T01:11:31.398Z,61792.09
2022-10-03T01:14:34.517Z,61792.09
2022-10-03T01:17:38.905Z,61792.09
2022-10-03T01:20:34.361Z,61792.09
2022-10-03T01:23:38.573Z,61792.09
2022-10-03T01:26:51.342Z,61792.09
2022-10-03T01:29:46.627Z,61792.09
2022-10-03T01:32:26.217Z,61792.09
2022-10-03T01:35:23.558Z,61792.09
2022-10-03T01:38:08.774Z,61792.09
2022-10-03T01:40:47.800Z,61792.09
2022-10-03T01:43:22.053Z,61792.09
2022-10-03T01:46:10.482Z,61792.09
2022-10-03T01:49:11.426Z,61792.09
2022-10-03T01:52:02.697Z,61792.09
2022-10-03T01:55:08.137Z,61792.09
2022-10-03T01:58:01.445Z,61792.09
2022-10-03T02:00:47.225Z,61792.09
2022-10-03T02:03:54.539Z,61792.09
2022-10-03T02:07:05.126Z,61792.09
2022-10-03T02:10:40.858Z,61792.09
2022-10-03T02:13:22.159Z,61792.09
2022-10-03T02:16:36.500Z,61792.09
2022-10-03T02:19:24.248Z,61792.09
2022-10-03T02:21:56.739Z,61792.09
2022-10-03T02:24:51.489Z,61792.09
2022-10-03T02:27:26.313Z,61792.09
2022-10-03T02:30:23.717Z,61792.09
2022-10-03T02:33:37.889Z,61792.09
2022-10-03T02:36:41.135Z,61792.09
2022-10-03T02:39:57.174Z,61792.09
2022-10-03T02:42:45.424Z,61792.09
2022-10-03T02:46:18.200Z,61792.09
2022-10-03T02:49:25.282Z,61792.09
2022-10-03T02:52:26.272Z,61792.09
2022-10-03T02:55:57.578Z,61792.09
2022-10-03T02:59:10.726Z,61792.09
2022-10-03T03:02:09.235Z,61792.09
2022-10-03T03:04:59.545Z,61792.09
2022-10-03T03:08:11.992Z,61792.09
2022-10-03T03:11:11.696Z,61792.09
2022-10-03T03:13:54.451Z,61792.09
2022-10-03T03:16:57.383Z,61792.09
2022-10-03T03:19:24.025Z,61792.09
2022-10-03T03:22:16.538Z,61792.09
2022-10-03T03:25:09.633Z,61792.09
2022-10-03T03:28:19.481Z,61792.09
2022-10-03T03:31:09.935Z,61792.09
2022-10-03T03:34:09.395Z,61792.09
2022-10-03T03:36:58.222Z,61792.09
2022-10-03T03:40:06.858Z,61792.09
2022-10-03T03:43:04.825Z,61792.09
2022-10-03T03:45:59.529Z,61792.09
2022-10-03T03:49:01.553Z,61792.09
2022-10-03T03:52:05.835Z,61792.09
2022-10-03T03:55:19.838Z,61792.09
2022-10-03T03:58:11.423Z,61792.09
2022-10-03T04:01:17.592Z,61792.09
2022-10-03T04:03:53.056Z,61792.09
2022-10-03T04:06:51.404Z,61792.09
2022-10-03T04:09:59.603Z,61792.09
2022-10-03T04:13:11.345Z,61792.09
2022-10-03T04:16:00.846Z,61792.09
2022-10-03T04:18:57.892Z,61792.09
2022-10-03T04:21:30.422Z,61792.09
2022-10-03T04:24:23.735Z,61792.09
2022-10-03T04:27:38.014Z,61792.09
2022-10-03T04:30:20.503Z,61792.09
2022-10-03T04:33:07.285Z,61792.09
2022-10-03T04:36:10.711Z,61792.09
2022-10-03T04:38:53.031Z,61792.09
2022-10-03T04:41:55.115Z,61792.09
2022-10-03T04:44:36.733Z,61792.09
2022-10-03T04:47:58.966Z,61792.09
2022-10-03T04:50:47.582Z,61792.09
2022-10-03T04:53:56.744Z,61792.09
2022-10-03T04:56:40.381Z,61792.09
2022-10-03T04:59:36.330Z,61792.09
2022-10-03T05:02:44.902Z,61792.09
2022-10-03T05:05:47.444Z,61792.09
2022-10-03T05:09:18.824Z,61792.09
2022-10-03T05:12:02.225Z,61792.09
2022-10-03T05:15:15.033Z,61792.09
2022-10-03T05:18:01.869Z,61792.09
2022-10-03T05:21:05.362Z,61792.09
2022-10-03T05:24:13.986Z,61792.09
2022-10-03T05:27:26.525Z,61792.09
2022-10-03T05:30:28.237Z,61792.09
2022-10-03T05:33:14.638Z,61792.09
2022-10-03T05:36:18.545Z,61792.09
2022-10-03T05:39:16.944Z,61792.09
2022-10-03T05:42:22.569Z,61792.09
2022-10-03T05:45:04.285Z,61792.09
2022-10-03T05:47:49.592Z,61792.09
2022-10-03T05:50:48.630Z,61792.09
2022-10-03T05:53:33.257Z,61792.09
2022-10-03T05:56:17.946Z,61792.09
2022-10-03T05:59:38.394Z,61792.09
2022-10-03T06:02:48.404Z,61792.09
2022-10-03T06:05:59.471Z,61792.09
2022-10-03T06:08:59.408Z,61792.09
2022-10-03T06:12:02.386Z,61792.09
2022-10-03T06:15:00.022Z,61792.09
2022-10-03T06:17:59.939Z,61792.09
2022-10-03T06:59:25.881Z,61792.09
2022-10-03T07:01:59.277Z,61792.09
2022-10-03T07:04:58.247Z,61792.09
2022-10-03T07:08:22.147Z,61792.09
2022-10-03T07:11:30.955Z,61792.09
2022-10-03T07:14:22.530Z,61792.09
2022-10-03T07:17:11.004Z,61792.09
2022-10-03T07:20:17.261Z,61792.09
2022-10-03T07:23:40.808Z,61792.09
2022-10-03T07:26:25.318Z,61792.09
2022-10-03T07:29:30.962Z,61792.09
2022-10-03T07:32:12.230Z,61792.09
2022-10-03T08:15:25.886Z,98720.34
2022-10-03T08:18:50.054Z,98718.38
2022-10-03T08:21:57.473Z,98713.47
2022-10-03T08:25:01.905Z,98712.28
2022-10-03T08:27:43.218Z,98714.03
2022-10-03T08:30:43.168Z,98720.31
2022-10-03T08:33:48.502Z,98723.16
2022-10-03T08:36:43.341Z,98719.09
2022-10-03T08:39:30.170Z,98720.78
2022-10-03T08:42:30.653Z,98722.09
2022-10-03T08:45:31.153Z,98711.56
2022-10-03T08:48:24.930Z,98713.38
2022-10-03T08:51:17.855Z,98714.34
2022-10-03T08:54:26.041Z,98713.56
2022-10-03T08:57:17.199Z,98717.63
2022-10-03T09:00:24.926Z,98718.28
2022-10-03T09:03:34.340Z,98706.78
2022-10-03T09:07:15.457Z,98718.25
2022-10-03T09:10:09.611Z,98704.53
2022-10-03T09:13:30.654Z,98699.38
2022-10-03T09:16:28.644Z,98712.28
2022-10-03T09:19:19.116Z,98709.00
2022-10-03T09:22:23.151Z,98709.47
2022-10-03T09:25:24.144Z,98713.84
2022-10-03T09:28:32.226Z,98728.25
2022-10-03T09:31:45.562Z,98717.31
2022-10-03T09:35:07.483Z,98719.84
2022-10-03T09:38:31.354Z,98721.59
2022-10-03T09:41:30.341Z,98718.03
2022-10-03T09:44:08.787Z,98720.56
2022-10-03T09:47:23.506Z,98718.66
2022-10-03T09:50:25.389Z,98717.91
2022-10-03T09:53:48.533Z,98716.38
2022-10-03T09:56:24.024Z,98718.16
2022-10-03T09:59:30.550Z,98724.84
2022-10-03T10:02:42.319Z,98713.16
2022-10-03T10:05:45.609Z,98717.56
2022-10-03T10:08:30.817Z,98709.84
2022-10-03T10:11:12.323Z,98711.38
2022-10-03T10:14:19.847Z,98716.84
2022-10-03T10:17:26.310Z,98718.75
2022-10-03T10:20:50.230Z,98713.50
2022-10-03T10:23:46.768Z,98719.00
2022-10-03T10:27:01.571Z,98711.00
2022-10-03T10:29:59.562Z,98714.72
2022-10-03T10:33:19.206Z,98710.53
2022-10-03T10:36:52.383Z,98711.00
2022-10-03T10:39:46.150Z,98704.34
2022-10-03T10:42:56.796Z,98699.78
2022-10-03T10:45:54.037Z,98703.31
2022-10-03T10:49:07.462Z,98703.53
2022-10-03T10:59:18.036Z,98701.59
2022-10-03T11:02:18.592Z,98707.91
2022-10-03T11:04:53.439Z,98712.44
2022-10-03T11:08:04.210Z,98704.72
2022-10-03T11:11:09.441Z,98706.50
2022-10-03T11:14:06.480Z,98707.56
2022-10-03T11:17:28.631Z,98695.50
2022-10-03T11:20:12.974Z,98704.91
2022-10-03T11:23:36.219Z,98688.47
2022-10-03T11:26:33.463Z,98691.22
2022-10-03T11:29:34.435Z,98689.31
2022-10-03T11:32:14.579Z,98689.53
2022-10-03T11:35:18.012Z,98694.38
2022-10-03T11:38:01.889Z,98685.66
2022-10-03T11:40:36.906Z,98686.28
2022-10-03T11:44:01.527Z,98683.84
2022-10-03T11:47:16.805Z,98689.13
2022-10-03T11:49:49.243Z,98694.91
2022-10-03T11:52:31.553Z,98692.16
2022-10-03T11:55:41.099Z,98680.63
2022-10-03T11:58:42.115Z,98685.38
2022-10-03T12:01:39.567Z,98689.41
2022-10-03T12:04:53.029Z,98684.75
2022-10-03T12:07:58.458Z,98685.56
2022-10-03T12:10:52.631Z,98691.84
2022-10-03T12:13:34.978Z,98688.94
2022-10-03T12:16:06.310Z,98680.38
2022-10-03T12:18:56.071Z,98681.94
2022-10-03T12:21:42.879Z,98682.16
2022-10-03T12:24:28.294Z,98681.34
2022-10-03T12:27:15.514Z,98676.72
2022-10-03T12:29:54.839Z,98675.28
2022-10-03T12:32:45.704Z,98672.13
2022-10-03T12:35:40.866Z,98679.97
2022-10-03T12:38:34.006Z,98670.63
2022-10-03T12:41:25.891Z,98666.09
2022-10-03T12:44:44.657Z,98654.47
2022-10-03T12:47:54.327Z,98660.63
2022-10-03T12:50:44.379Z,98656.25
2022-10-03T12:53:19.774Z,98655.00
2022-10-03T12:56:07.634Z,98655.47
2022-10-03T12:58:53.675Z,98647.22
2022-10-03T13:01:39.240Z,98635.09
2022-10-03T13:04:38.171Z,98640.34
2022-10-03T13:07:39.738Z,98631.34
2022-10-03T13:10:43.430Z,98636.03
2022-10-03T13:13:54.079Z,98636.75
2022-10-03T13:16:45.369Z,98635.78
2022-10-03T13:19:21.802Z,98633.44
2022-10-03T13:22:10.140Z,98632.22
2022-10-03T13:24:48.973Z,98631.75
2022-10-03T13:27:35.895Z,98627.47
2022-10-03T13:30:15.145Z,98626.50
2022-10-03T13:32:51.365Z,98624.06
2022-10-03T13:35:49.193Z,98624.78
2022-10-03T13:38:39.242Z,98626.16
2022-10-03T13:41:42.527Z,98623.22
2022-10-03T13:44:22.403Z,98627.66
2022-10-03T13:47:16.376Z,98620.94
2022-10-03T13:49:58.653Z,98623.34
2022-10-03T13:52:46.768Z,98617.03
2022-10-03T13:55:29.325Z,98605.97
2022-10-03T13:58:35.927Z,98608.03
2022-10-03T14:01:24.144Z,98611.31
2022-10-03T14:04:15.006Z,98609.81
2022-10-03T14:06:55.207Z,98615.69
2022-10-03T14:09:49.837Z,98607.78
2022-10-03T14:12:55.391Z,97040.06
2022-10-03T14:15:23.576Z,98601.03
2022-10-03T14:18:39.251Z,98336.63
2022-10-03T14:21:22.256Z,98605.91
2022-10-03T14:24:32.464Z,98592.66
2022-10-03T14:27:10.136Z,98583.03
2022-10-03T14:30:00.355Z,98584.75
2022-10-03T14:32:53.235Z,98585.97
2022-10-03T14:35:26.135Z,98579.97
2022-10-03T14:38:49.008Z,98579.00
2022-10-03T14:41:32.466Z,98579.81
2022-10-03T14:44:30.105Z,98577.91
2022-10-03T14:47:08.653Z,98582.06
2022-10-03T14:49:59.269Z,98578.25
2022-10-03T14:55:28.944Z,97483.41
2022-10-03T14:58:12.846Z,98574.72
2022-10-03T15:00:47.613Z,98573.72
2022-10-03T15:03:17.095Z,98577.59
2022-10-03T15:06:11.026Z,98577.50
2022-10-03T15:08:55.759Z,98573.44
2022-10-03T15:11:30.487Z,98576.50
2022-10-03T15:14:06.357Z,98565.44
2022-10-03T15:16:43.812Z,98562.03
2022-10-03T15:19:19.868Z,98560.91
2022-10-03T15:21:51.513Z,98564.75
2022-10-03T15:24:28.069Z,98558.81
2022-10-03T15:27:12.701Z,98561.16
2022-10-03T15:29:40.652Z,98564.06
2022-10-03T15:32:23.434Z,98561.53
2022-10-03T15:34:58.262Z,98553.44
2022-10-03T15:37:33.861Z,98569.25
2022-10-03T15:40:20.380Z,98569.25
2022-10-03T15:43:28.246Z,98568.97
2022-10-03T15:46:01.211Z,98565.50
2022-10-03T15:48:30.453Z,98562.50
2022-10-03T15:50:59.216Z,98561.84
2022-10-03T15:53:37.797Z,98567.84
2022-10-03T15:56:26.378Z,98566.19
2022-10-03T15:59:05.832Z,98570.50
2022-10-03T16:01:40.986Z,98564.34
2022-10-03T16:04:38.530Z,98567.00
2022-10-03T16:07:12.322Z,98564.28
2022-10-03T16:10:10.503Z,98560.59
2022-10-03T16:12:58.429Z,98566.34
2022-10-03T16:15:47.805Z,98553.84
2022-10-03T16:18:48.463Z,98563.03
2022-10-03T16:21:41.822Z,98568.63
2022-10-03T16:24:41.852Z,98566.38
2022-10-03T16:27:16.927Z,98579.00
2022-10-03T16:30:10.537Z,98580.41
2022-10-03T16:32:58.024Z,98581.94
2022-10-03T16:35:47.536Z,98575.41
2022-10-03T16:38:52.939Z,98575.13
2022-10-03T16:41:35.051Z,98571.09
2022-10-03T16:44:20.626Z,98580.34
2022-10-03T16:46:49.207Z,98576.31
2022-10-03T16:49:53.435Z,98569.06
2022-10-03T16:52:35.706Z,98579.03
2022-10-03T16:55:12.654Z,98578.66
2022-10-03T16:58:01.049Z,98579.94
2022-10-03T17:01:09.149Z,98577.69
2022-10-03T17:03:48.389Z,98577.94
2022-10-03T17:06:23.452Z,98574.56
2022-10-03T17:08:54.526Z,98577.44
2022-10-03T17:11:28.697Z,98575.88
2022-10-03T17:14:18.574Z,98581.34
2022-10-03T17:17:02.935Z,98585.97
2022-10-03T17:19:42.464Z,98589.72
2022-10-03T17:22:22.765Z,98587.47
2022-10-03T17:25:02.379Z,98588.75
2022-10-03T17:27:38.423Z,98593.50
2022-10-03T17:30:37.414Z,98594.66
2022-10-03T17:33:31.691Z,98590.50
2022-10-03T17:36:26.212Z,98594.97
2022-10-03T17:39:04.411Z,98589.16
2022-10-03T17:41:54.519Z,98588.44
2022-10-03T17:44:51.703Z,98599.00
2022-10-03T17:47:54.453Z,98600.28
2022-10-03T17:50:36.778Z,98593.38
2022-10-03T17:53:04.854Z,98591.00
2022-10-03T17:55:41.111Z,98590.28
2022-10-03T17:58:18.973Z,98595.84
2022-10-03T18:00:45.640Z,98588.34
2022-10-03T18:03:40.771Z,98593.91
2022-10-03T18:06:29.711Z,98592.44
2022-10-03T18:08:57.003Z,98590.13
2022-10-03T18:11:28.985Z,98587.03
2022-10-03T18:14:32.268Z,98592.78
2022-10-03T18:17:46.596Z,98588.25
2022-10-03T18:20:40.566Z,98587.94
2022-10-03T18:23:36.766Z,98587.63
2022-10-03T18:26:26.966Z,98577.03
2022-10-03T18:29:18.391Z,98579.34
2022-10-03T18:31:57.227Z,98575.34
2022-10-03T18:34:48.141Z,98583.72
2022-10-03T18:37:26.516Z,98573.09
2022-10-03T18:39:56.701Z,98584.97
2022-10-03T18:42:29.739Z,98571.88
2022-10-03T18:45:00.200Z,98568.94
2022-10-03T18:47:39.334Z,98559.97
2022-10-03T18:50:32.557Z,98567.78
2022-10-03T18:53:27.735Z,98570.81
2022-10-03T18:56:05.322Z,98573.00
2022-10-03T18:58:42.255Z,98575.38
2022-10-03T19:01:25.066Z,98579.41
2022-10-03T19:04:04.464Z,98574.59
2022-10-03T19:06:38.567Z,98569.81
2022-10-03T19:09:19.427Z,98580.63
2022-10-03T19:12:14.544Z,98571.75
2022-10-03T19:15:27.020Z,98576.00
2022-10-03T19:18:27.789Z,98574.06
2022-10-03T19:21:00.082Z,98579.75
2022-10-03T19:23:38.359Z,98583.69
2022-10-03T19:26:21.813Z,98586.78
2022-10-03T19:28:54.279Z,98577.72
2022-10-03T19:31:36.583Z,98580.69
2022-10-03T19:34:42.478Z,98587.31
2022-10-03T19:37:49.081Z,98583.31
2022-10-03T19:40:45.073Z,98592.44
2022-10-03T19:43:31.448Z,98597.81
2022-10-03T19:46:35.516Z,98597.28
2022-10-03T19:49:22.111Z,98594.31
2022-10-03T19:51:50.249Z,98600.44
2022-10-03T19:54:58.526Z,98595.00
2022-10-03T19:57:38.628Z,98605.75
2022-10-03T20:00:15.941Z,98599.03
2022-10-03T20:02:44.951Z,98595.84
2022-10-03T20:05:22.346Z,98599.69
2022-10-03T20:08:17.731Z,98593.84
2022-10-03T20:11:14.911Z,98599.38
2022-10-03T20:13:48.037Z,98598.09
2022-10-03T20:16:30.093Z,98608.84
2022-10-03T20:19:16.022Z,98600.59
2022-10-03T20:21:43.244Z,98596.56
2022-10-03T20:24:34.277Z,98598.63
2022-10-03T20:27:35.981Z,98592.88
2022-10-03T20:30:26.298Z,98574.84
2022-10-03T20:32:57.707Z,98578.47
2022-10-03T20:35:48.359Z,98583.00
2022-10-03T20:38:40.023Z,98591.06
2022-10-03T20:41:19.647Z,98590.50
2022-10-03T20:44:10.582Z,98584.66
2022-10-03T20:46:45.594Z,98585.09
2022-10-03T20:49:35.302Z,98593.22
2022-10-03T20:52:08.668Z,61792.09
2022-10-03T20:54:51.157Z,98593.22
2022-10-03T20:57:37.785Z,98588.75
2022-10-03T21:00:16.931Z,98591.56
2022-10-03T21:02:56.219Z,98599.81
2022-10-03T21:05:49.554Z,98594.13
2022-10-03T21:08:40.240Z,98595.13
2022-10-03T21:11:30.414Z,98580.75
2022-10-03T21:14:07.411Z,98574.16
2022-10-03T21:16:36.480Z,98571.06
2022-10-03T21:19:17.011Z,98565.38
2022-10-03T21:21:58.664Z,98557.69
2022-10-03T21:24:40.004Z,98551.50
2022-10-03T21:27:14.242Z,98551.09
2022-10-03T21:29:56.112Z,98555.69
2022-10-03T21:32:42.013Z,98548.00
2022-10-03T21:35:26.411Z,98563.06
2022-10-03T21:38:20.007Z,98567.50
2022-10-03T21:41:45.979Z,98570.25
2022-10-03T21:44:44.730Z,98565.22
2022-10-03T21:47:35.112Z,98574.94
2022-10-03T21:50:07.182Z,98571.59
2022-10-03T21:53:10.150Z,98563.28
2022-10-03T21:56:04.249Z,98555.16
2022-10-03T21:58:52.227Z,98561.59
2022-10-03T22:01:27.842Z,98561.50
2022-10-03T22:04:19.044Z,98563.53
2022-10-03T22:07:02.508Z,98559.41
2022-10-03T22:09:29.365Z,98562.06
2022-10-03T22:12:04.466Z,98562.34
2022-10-03T22:15:00.067Z,98563.47
2022-10-03T22:17:38.854Z,98551.63
2022-10-03T22:20:23.731Z,98552.78
2022-10-03T22:23:45.578Z,98554.84
2022-10-03T22:27:08.143Z,98549.91
2022-10-03T22:29:57.178Z,98540.56
2022-10-03T22:33:07.729Z,98535.41
2022-10-03T22:35:59.285Z,98537.16
2022-10-03T22:38:31.432Z,98527.63
2022-10-03T22:41:05.030Z,98549.25
2022-10-03T22:43:37.145Z,98539.78
2022-10-03T22:46:06.170Z,98537.38
2022-10-03T22:48:50.067Z,98549.72
2022-10-03T22:51:21.606Z,98535.31
2022-10-03T22:53:57.715Z,98539.00
2022-10-03T22:56:48.889Z,98528.97
2022-10-03T22:59:37.516Z,98530.78
2022-10-03T23:02:08.424Z,98526.69
2022-10-03T23:04:39.529Z,98519.09
2022-10-03T23:07:42.561Z,98521.09
2022-10-03T23:10:30.972Z,98514.38
2022-10-03T23:13:35.282Z,98515.53
2022-10-03T23:16:51.679Z,98517.50
2022-10-03T23:19:47.820Z,98503.81
2022-10-03T23:22:19.490Z,98506.50
2022-10-03T23:25:24.628Z,98507.50
2022-10-03T23:28:24.709Z,98498.97
2022-10-03T23:30:53.901Z,98514.41
2022-10-03T23:33:51.960Z,98506.81
2022-10-03T23:36:24.365Z,98512.13
2022-10-03T23:38:58.655Z,98505.44
2022-10-03T23:42:26.660Z,98513.44
2022-10-03T23:44:57.974Z,98512.72
2022-10-03T23:47:33.919Z,98521.56
2022-10-03T23:50:04.049Z,98523.38
2022-10-03T23:52:41.155Z,98520.19
2022-10-03T23:55:08.982Z,98529.00
2022-10-03T23:57:42.316Z,98529.97
